sensor_id;sensor_type;location;lat;lon;timestamp;P1;durP1;ratioP1;P2;durP2;ratioP2
50773;SDS011;36745;48.544;8.918;2023-03-03T00:03:18;77.78;;;40.58;;
50773;SDS011;36745;48.544;8.918;2023-03-03T00:06:41;83.55;;;42.33;;
50773;SDS011;36745;48.544;8.918;2023-03-03T00:10:03;75.63;;;39.47;;
50773;SDS011;36745;48.544;8.918;2023-03-03T00:13:24;82.60;;;41.15;;
50773;SDS011;36745;48.544;8.918;2023-03-03T00:16:45;77.07;;;39.35;;
50773;SDS011;36745;48.544;8.918;2023-03-03T00:20:27;72.47;;;37.55;;
50773;SDS011;36745;48.544;8.918;2023-03-03T00:27:34;73.05;;;38.45;;
50773;SDS011;36745;48.544;8.918;2023-03-03T00:31:00;82.72;;;38.03;;
50773;SDS011;36745;48.544;8.918;2023-03-03T00:34:25;79.35;;;38.95;;
50773;SDS011;36745;48.544;8.918;2023-03-03T00:37:52;75.47;;;36.75;;
50773;SDS011;36745;48.544;8.918;2023-03-03T00:41:25;73.00;;;37.83;;
50773;SDS011;36745;48.544;8.918;2023-03-03T00:44:56;71.15;;;37.28;;
50773;SDS011;36745;48.544;8.918;2023-03-03T00:48:21;72.25;;;37.63;;
50773;SDS011;36745;48.544;8.918;2023-03-03T00:51:45;70.82;;;37.35;;
50773;SDS011;36745;48.544;8.918;2023-03-03T00:55:06;71.13;;;37.00;;
50773;SDS011;36745;48.544;8.918;2023-03-03T00:58:26;74.88;;;37.50;;
50773;SDS011;36745;48.544;8.918;2023-03-03T01:01:46;73.55;;;37.47;;
50773;SDS011;36745;48.544;8.918;2023-03-03T01:05:06;76.32;;;37.60;;
50773;SDS011;36745;48.544;8.918;2023-03-03T01:08:28;77.07;;;36.88;;
50773;SDS011;36745;48.544;8.918;2023-03-03T01:11:48;72.45;;;35.88;;
50773;SDS011;36745;48.544;8.918;2023-03-03T01:15:08;73.15;;;36.88;;
50773;SDS011;36745;48.544;8.918;2023-03-03T01:18:29;72.60;;;35.97;;
50773;SDS011;36745;48.544;8.918;2023-03-03T01:21:49;65.50;;;35.53;;
50773;SDS011;36745;48.544;8.918;2023-03-03T01:25:09;69.85;;;36.30;;
50773;SDS011;36745;48.544;8.918;2023-03-03T01:28:28;66.72;;;35.85;;
50773;SDS011;36745;48.544;8.918;2023-03-03T01:31:48;67.88;;;36.55;;
50773;SDS011;36745;48.544;8.918;2023-03-03T01:35:08;72.40;;;37.03;;
50773;SDS011;36745;48.544;8.918;2023-03-03T01:38:28;72.80;;;38.15;;
50773;SDS011;36745;48.544;8.918;2023-03-03T01:41:47;73.32;;;36.65;;
50773;SDS011;36745;48.544;8.918;2023-03-03T01:48:41;73.57;;;36.53;;
50773;SDS011;36745;48.544;8.918;2023-03-03T01:52:08;52.17;;;27.23;;
50773;SDS011;36745;48.544;8.918;2023-03-03T01:55:35;68.68;;;35.70;;
50773;SDS011;36745;48.544;8.918;2023-03-03T01:58:59;69.75;;;36.67;;
50773;SDS011;36745;48.544;8.918;2023-03-03T02:02:22;74.80;;;36.78;;
50773;SDS011;36745;48.544;8.918;2023-03-03T02:05:44;70.22;;;37.30;;
50773;SDS011;36745;48.544;8.918;2023-03-03T02:09:06;79.32;;;38.92;;
50773;SDS011;36745;48.544;8.918;2023-03-03T02:12:38;71.45;;;36.85;;
50773;SDS011;36745;48.544;8.918;2023-03-03T02:15:59;80.00;;;37.28;;
50773;SDS011;36745;48.544;8.918;2023-03-03T02:26:53;75.45;;;38.40;;
50773;SDS011;36745;48.544;8.918;2023-03-03T02:30:15;74.35;;;36.40;;
50773;SDS011;36745;48.544;8.918;2023-03-03T02:33:38;69.35;;;36.53;;
50773;SDS011;36745;48.544;8.918;2023-03-03T02:40:22;74.75;;;34.55;;
50773;SDS011;36745;48.544;8.918;2023-03-03T02:44:02;73.80;;;36.17;;
50773;SDS011;36745;48.544;8.918;2023-03-03T02:47:24;70.03;;;36.70;;
50773;SDS011;36745;48.544;8.918;2023-03-03T02:50:44;74.50;;;36.88;;
50773;SDS011;36745;48.544;8.918;2023-03-03T02:54:04;72.55;;;36.92;;
50773;SDS011;36745;48.544;8.918;2023-03-03T02:57:25;70.95;;;36.22;;
50773;SDS011;36745;48.544;8.918;2023-03-03T03:00:45;74.70;;;36.58;;
50773;SDS011;36745;48.544;8.918;2023-03-03T03:04:08;75.30;;;35.70;;
50773;SDS011;36745;48.544;8.918;2023-03-03T03:07:30;73.82;;;34.22;;
50773;SDS011;36745;48.544;8.918;2023-03-03T03:10:53;70.43;;;36.70;;
50773;SDS011;36745;48.544;8.918;2023-03-03T03:14:13;70.72;;;35.45;;
50773;SDS011;36745;48.544;8.918;2023-03-03T03:17:33;68.10;;;35.08;;
50773;SDS011;36745;48.544;8.918;2023-03-03T03:20:53;69.43;;;35.22;;
50773;SDS011;36745;48.544;8.918;2023-03-03T03:24:13;76.13;;;34.83;;
50773;SDS011;36745;48.544;8.918;2023-03-03T03:27:32;73.18;;;36.33;;
50773;SDS011;36745;48.544;8.918;2023-03-03T03:30:52;69.97;;;37.15;;
50773;SDS011;36745;48.544;8.918;2023-03-03T03:34:12;74.60;;;37.17;;
50773;SDS011;36745;48.544;8.918;2023-03-03T03:37:32;66.32;;;35.28;;
50773;SDS011;36745;48.544;8.918;2023-03-03T03:40:52;71.30;;;35.75;;
50773;SDS011;36745;48.544;8.918;2023-03-03T03:44:13;76.68;;;36.72;;
50773;SDS011;36745;48.544;8.918;2023-03-03T03:47:32;75.30;;;36.75;;
50773;SDS011;36745;48.544;8.918;2023-03-03T03:50:52;73.65;;;38.10;;
50773;SDS011;36745;48.544;8.918;2023-03-03T03:54:12;68.25;;;35.78;;
50773;SDS011;36745;48.544;8.918;2023-03-03T03:57:32;76.28;;;36.92;;
50773;SDS011;36745;48.544;8.918;2023-03-03T04:00:52;73.88;;;37.03;;
50773;SDS011;36745;48.544;8.918;2023-03-03T04:04:12;72.38;;;37.00;;
50773;SDS011;36745;48.544;8.918;2023-03-03T04:07:32;72.78;;;36.85;;
50773;SDS011;36745;48.544;8.918;2023-03-03T04:10:51;68.85;;;35.72;;
50773;SDS011;36745;48.544;8.918;2023-03-03T04:14:11;70.47;;;36.00;;
50773;SDS011;36745;48.544;8.918;2023-03-03T04:17:31;77.70;;;38.15;;
50773;SDS011;36745;48.544;8.918;2023-03-03T04:20:51;80.25;;;37.42;;
50773;SDS011;36745;48.544;8.918;2023-03-03T04:24:13;78.90;;;38.60;;
50773;SDS011;36745;48.544;8.918;2023-03-03T04:27:33;69.90;;;37.58;;
50773;SDS011;36745;48.544;8.918;2023-03-03T04:30:54;75.68;;;36.15;;
50773;SDS011;36745;48.544;8.918;2023-03-03T04:34:15;69.43;;;36.60;;
50773;SDS011;36745;48.544;8.918;2023-03-03T04:37:35;70.55;;;37.10;;
50773;SDS011;36745;48.544;8.918;2023-03-03T04:40:55;74.78;;;38.10;;
50773;SDS011;36745;48.544;8.918;2023-03-03T04:44:15;73.15;;;37.40;;
50773;SDS011;36745;48.544;8.918;2023-03-03T04:47:35;74.13;;;36.28;;
50773;SDS011;36745;48.544;8.918;2023-03-03T04:50:55;95.75;;;47.83;;
50773;SDS011;36745;48.544;8.918;2023-03-03T04:54:15;74.28;;;39.10;;
50773;SDS011;36745;48.544;8.918;2023-03-03T04:57:34;62.42;;;35.25;;
50773;SDS011;36745;48.544;8.918;2023-03-03T05:00:55;79.45;;;39.38;;
50773;SDS011;36745;48.544;8.918;2023-03-03T05:04:16;75.40;;;38.60;;
50773;SDS011;36745;48.544;8.918;2023-03-03T05:07:36;79.18;;;40.05;;
50773;SDS011;36745;48.544;8.918;2023-03-03T05:10:55;78.55;;;41.22;;
50773;SDS011;36745;48.544;8.918;2023-03-03T05:14:17;80.55;;;41.03;;
50773;SDS011;36745;48.544;8.918;2023-03-03T05:17:37;83.47;;;41.67;;
50773;SDS011;36745;48.544;8.918;2023-03-03T05:20:57;83.30;;;40.95;;
50773;SDS011;36745;48.544;8.918;2023-03-03T05:24:17;76.95;;;40.47;;
50773;SDS011;36745;48.544;8.918;2023-03-03T05:27:36;88.95;;;42.22;;
50773;SDS011;36745;48.544;8.918;2023-03-03T05:30:56;79.20;;;39.60;;
50773;SDS011;36745;48.544;8.918;2023-03-03T05:34:16;74.80;;;39.63;;
50773;SDS011;36745;48.544;8.918;2023-03-03T05:37:36;72.78;;;38.42;;
50773;SDS011;36745;48.544;8.918;2023-03-03T05:40:58;73.07;;;37.08;;
50773;SDS011;36745;48.544;8.918;2023-03-03T05:44:18;73.30;;;37.70;;
50773;SDS011;36745;48.544;8.918;2023-03-03T05:47:38;74.82;;;38.85;;
50773;SDS011;36745;48.544;8.918;2023-03-03T05:50:58;75.13;;;39.05;;
50773;SDS011;36745;48.544;8.918;2023-03-03T05:54:17;78.45;;;40.60;;
50773;SDS011;36745;48.544;8.918;2023-03-03T05:57:37;86.22;;;44.25;;
50773;SDS011;36745;48.544;8.918;2023-03-03T06:00:57;80.13;;;42.97;;
50773;SDS011;36745;48.544;8.918;2023-03-03T06:04:17;75.30;;;39.85;;
50773;SDS011;36745;48.544;8.918;2023-03-03T06:07:37;70.15;;;38.45;;
50773;SDS011;36745;48.544;8.918;2023-03-03T06:10:57;73.30;;;37.72;;
50773;SDS011;36745;48.544;8.918;2023-03-03T06:14:17;76.53;;;41.70;;
50773;SDS011;36745;48.544;8.918;2023-03-03T06:17:36;78.18;;;40.13;;
50773;SDS011;36745;48.544;8.918;2023-03-03T06:20:56;81.70;;;41.67;;
50773;SDS011;36745;48.544;8.918;2023-03-03T06:24:16;78.10;;;40.92;;
50773;SDS011;36745;48.544;8.918;2023-03-03T06:27:36;79.95;;;42.40;;
50773;SDS011;36745;48.544;8.918;2023-03-03T06:30:56;77.72;;;41.35;;
50773;SDS011;36745;48.544;8.918;2023-03-03T06:34:16;74.35;;;40.75;;
50773;SDS011;36745;48.544;8.918;2023-03-03T06:37:36;72.55;;;39.60;;
50773;SDS011;36745;48.544;8.918;2023-03-03T06:40:55;68.57;;;37.45;;
50773;SDS011;36745;48.544;8.918;2023-03-03T06:44:16;74.28;;;38.60;;
50773;SDS011;36745;48.544;8.918;2023-03-03T06:47:35;74.50;;;37.92;;
50773;SDS011;36745;48.544;8.918;2023-03-03T06:50:56;73.28;;;38.03;;
50773;SDS011;36745;48.544;8.918;2023-03-03T06:54:18;68.20;;;36.67;;
50773;SDS011;36745;48.544;8.918;2023-03-03T06:57:56;74.10;;;37.00;;
50773;SDS011;36745;48.544;8.918;2023-03-03T07:01:17;72.05;;;37.45;;
50773;SDS011;36745;48.544;8.918;2023-03-03T07:04:37;69.22;;;36.72;;
50773;SDS011;36745;48.544;8.918;2023-03-03T07:07:57;79.00;;;40.38;;
50773;SDS011;36745;48.544;8.918;2023-03-03T07:11:19;68.82;;;38.03;;
50773;SDS011;36745;48.544;8.918;2023-03-03T07:14:46;70.40;;;40.38;;
50773;SDS011;36745;48.544;8.918;2023-03-03T07:22:59;68.47;;;38.22;;
50773;SDS011;36745;48.544;8.918;2023-03-03T07:26:37;74.95;;;39.15;;
50773;SDS011;36745;48.544;8.918;2023-03-03T07:30:16;77.70;;;41.17;;
50773;SDS011;36745;48.544;8.918;2023-03-03T07:33:43;76.82;;;40.00;;
50773;SDS011;36745;48.544;8.918;2023-03-03T07:40:47;73.00;;;39.53;;
50773;SDS011;36745;48.544;8.918;2023-03-03T07:44:18;77.97;;;40.03;;
50773;SDS011;36745;48.544;8.918;2023-03-03T07:47:40;73.55;;;39.83;;
50773;SDS011;36745;48.544;8.918;2023-03-03T07:51:02;80.45;;;38.33;;
50773;SDS011;36745;48.544;8.918;2023-03-03T08:01:38;66.18;;;37.80;;
50773;SDS011;36745;48.544;8.918;2023-03-03T08:04:59;68.30;;;36.85;;
50773;SDS011;36745;48.544;8.918;2023-03-03T08:08:35;92.72;;;42.40;;
50773;SDS011;36745;48.544;8.918;2023-03-03T08:15:27;85.45;;;42.58;;
50773;SDS011;36745;48.544;8.918;2023-03-03T08:18:50;78.50;;;41.53;;
50773;SDS011;36745;48.544;8.918;2023-03-03T08:22:13;75.43;;;39.53;;
50773;SDS011;36745;48.544;8.918;2023-03-03T08:25:36;72.30;;;39.40;;
50773;SDS011;36745;48.544;8.918;2023-03-03T08:28:56;73.15;;;37.90;;
50773;SDS011;36745;48.544;8.918;2023-03-03T08:32:16;70.43;;;37.72;;
50773;SDS011;36745;48.544;8.918;2023-03-03T08:35:35;76.45;;;40.78;;
50773;SDS011;36745;48.544;8.918;2023-03-03T08:38:55;74.10;;;39.33;;
50773;SDS011;36745;48.544;8.918;2023-03-03T08:42:15;79.13;;;40.60;;
50773;SDS011;36745;48.544;8.918;2023-03-03T08:45:35;71.43;;;38.97;;
50773;SDS011;36745;48.544;8.918;2023-03-03T08:48:55;77.60;;;40.35;;
50773;SDS011;36745;48.544;8.918;2023-03-03T08:52:14;81.13;;;42.53;;
50773;SDS011;36745;48.544;8.918;2023-03-03T08:55:34;75.55;;;41.22;;
50773;SDS011;36745;48.544;8.918;2023-03-03T08:58:54;76.15;;;40.08;;
50773;SDS011;36745;48.544;8.918;2023-03-03T09:02:14;72.32;;;39.60;;
50773;SDS011;36745;48.544;8.918;2023-03-03T09:05:36;82.15;;;40.05;;
50773;SDS011;36745;48.544;8.918;2023-03-03T09:08:56;86.07;;;40.90;;
50773;SDS011;36745;48.544;8.918;2023-03-03T09:12:18;80.03;;;41.75;;
50773;SDS011;36745;48.544;8.918;2023-03-03T09:15:41;73.57;;;39.22;;
50773;SDS011;36745;48.544;8.918;2023-03-03T09:19:05;77.63;;;38.55;;
50773;SDS011;36745;48.544;8.918;2023-03-03T09:22:36;80.85;;;39.13;;
50773;SDS011;36745;48.544;8.918;2023-03-03T09:25:57;74.93;;;39.88;;
50773;SDS011;36745;48.544;8.918;2023-03-03T09:29:38;73.78;;;38.75;;
50773;SDS011;36745;48.544;8.918;2023-03-03T09:32:59;82.20;;;39.75;;
50773;SDS011;36745;48.544;8.918;2023-03-03T09:36:35;86.20;;;41.53;;
50773;SDS011;36745;48.544;8.918;2023-03-03T09:39:56;76.47;;;38.67;;
50773;SDS011;36745;48.544;8.918;2023-03-03T09:43:23;72.93;;;38.80;;
50773;SDS011;36745;48.544;8.918;2023-03-03T09:46:54;71.72;;;37.72;;
50773;SDS011;36745;48.544;8.918;2023-03-03T10:08:57;73.43;;;38.15;;
50773;SDS011;36745;48.544;8.918;2023-03-03T10:13:23;71.97;;;38.22;;
50773;SDS011;36745;48.544;8.918;2023-03-03T10:24:56;83.97;;;39.65;;
50773;SDS011;36745;48.544;8.918;2023-03-03T10:36:43;66.22;;;35.78;;
50773;SDS011;36745;48.544;8.918;2023-03-03T11:05:59;62.10;;;35.42;;
50773;SDS011;36745;48.544;8.918;2023-03-03T11:09:29;71.80;;;35.50;;
50773;SDS011;36745;48.544;8.918;2023-03-03T11:23:43;65.75;;;36.97;;
50773;SDS011;36745;48.544;8.918;2023-03-03T11:27:15;57.50;;;34.53;;
50773;SDS011;36745;48.544;8.918;2023-03-03T11:37:44;56.70;;;33.88;;
50773;SDS011;36745;48.544;8.918;2023-03-03T11:41:21;60.35;;;35.03;;
50773;SDS011;36745;48.544;8.918;2023-03-03T11:44:46;61.47;;;34.47;;
50773;SDS011;36745;48.544;8.918;2023-03-03T11:48:11;64.22;;;35.05;;
50773;SDS011;36745;48.544;8.918;2023-03-03T11:55:12;55.33;;;33.70;;
50773;SDS011;36745;48.544;8.918;2023-03-03T11:58:35;51.72;;;32.78;;
50773;SDS011;36745;48.544;8.918;2023-03-03T12:09:36;55.95;;;32.08;;
50773;SDS011;36745;48.544;8.918;2023-03-03T12:13:12;54.55;;;30.65;;
50773;SDS011;36745;48.544;8.918;2023-03-03T12:17:10;54.88;;;31.60;;
50773;SDS011;36745;48.544;8.918;2023-03-03T12:20:37;49.15;;;30.00;;
50773;SDS011;36745;48.544;8.918;2023-03-03T12:24:14;55.40;;;28.95;;
50773;SDS011;36745;48.544;8.918;2023-03-03T12:28:02;48.42;;;29.35;;
50773;SDS011;36745;48.544;8.918;2023-03-03T12:35:19;46.05;;;28.13;;
50773;SDS011;36745;48.544;8.918;2023-03-03T12:38:55;45.58;;;29.52;;
50773;SDS011;36745;48.544;8.918;2023-03-03T12:53:24;50.63;;;28.70;;
50773;SDS011;36745;48.544;8.918;2023-03-03T12:57:02;49.42;;;29.23;;
50773;SDS011;36745;48.544;8.918;2023-03-03T13:29:34;52.10;;;33.05;;
50773;SDS011;36745;48.544;8.918;2023-03-03T13:33:07;57.85;;;33.95;;
50773;SDS011;36745;48.544;8.918;2023-03-03T13:36:41;48.90;;;32.45;;
50773;SDS011;36745;48.544;8.918;2023-03-03T13:43:44;46.35;;;27.50;;
50773;SDS011;36745;48.544;8.918;2023-03-03T13:50:55;48.50;;;31.05;;
50773;SDS011;36745;48.544;8.918;2023-03-03T13:54:52;49.70;;;28.80;;
50773;SDS011;36745;48.544;8.918;2023-03-03T14:05:59;47.13;;;26.77;;
50773;SDS011;36745;48.544;8.918;2023-03-03T14:13:03;47.53;;;28.33;;
50773;SDS011;36745;48.544;8.918;2023-03-03T14:16:42;43.80;;;26.17;;
50773;SDS011;36745;48.544;8.918;2023-03-03T14:24:17;41.65;;;26.70;;
50773;SDS011;36745;48.544;8.918;2023-03-03T14:31:37;46.28;;;24.83;;
50773;SDS011;36745;48.544;8.918;2023-03-03T14:34:58;48.60;;;25.02;;
50773;SDS011;36745;48.544;8.918;2023-03-03T14:41:51;42.78;;;25.83;;
50773;SDS011;36745;48.544;8.918;2023-03-03T14:45:35;42.85;;;24.50;;
50773;SDS011;36745;48.544;8.918;2023-03-03T14:48:58;49.42;;;26.65;;
50773;SDS011;36745;48.544;8.918;2023-03-03T14:52:25;43.58;;;26.58;;
50773;SDS011;36745;48.544;8.918;2023-03-03T14:55:48;40.67;;;25.33;;
50773;SDS011;36745;48.544;8.918;2023-03-03T15:02:37;41.13;;;25.92;;
50773;SDS011;36745;48.544;8.918;2023-03-03T15:06:01;42.25;;;26.40;;
50773;SDS011;36745;48.544;8.918;2023-03-03T15:12:45;43.80;;;26.38;;
50773;SDS011;36745;48.544;8.918;2023-03-03T15:20:02;48.05;;;26.55;;
50773;SDS011;36745;48.544;8.918;2023-03-03T15:23:30;42.20;;;25.50;;
50773;SDS011;36745;48.544;8.918;2023-03-03T15:27:23;49.75;;;28.33;;
50773;SDS011;36745;48.544;8.918;2023-03-03T15:34:51;38.78;;;25.25;;
50773;SDS011;36745;48.544;8.918;2023-03-03T15:38:23;43.67;;;26.20;;
50773;SDS011;36745;48.544;8.918;2023-03-03T15:45:16;48.90;;;30.35;;
50773;SDS011;36745;48.544;8.918;2023-03-03T15:48:56;45.60;;;27.15;;
50773;SDS011;36745;48.544;8.918;2023-03-03T16:03:19;44.35;;;27.05;;
50773;SDS011;36745;48.544;8.918;2023-03-03T16:07:02;49.17;;;27.83;;
50773;SDS011;36745;48.544;8.918;2023-03-03T16:22:17;50.78;;;28.20;;
50773;SDS011;36745;48.544;8.918;2023-03-03T16:36:57;59.75;;;33.53;;
50773;SDS011;36745;48.544;8.918;2023-03-03T16:40:28;54.33;;;30.52;;
50773;SDS011;36745;48.544;8.918;2023-03-03T16:44:00;67.28;;;32.42;;
50773;SDS011;36745;48.544;8.918;2023-03-03T16:54:56;51.95;;;28.52;;
50773;SDS011;36745;48.544;8.918;2023-03-03T17:02:23;56.35;;;29.45;;
50773;SDS011;36745;48.544;8.918;2023-03-03T17:06:22;48.90;;;28.35;;
50773;SDS011;36745;48.544;8.918;2023-03-03T17:18:03;57.05;;;31.58;;
50773;SDS011;36745;48.544;8.918;2023-03-03T17:28:44;78.07;;;40.88;;
50773;SDS011;36745;48.544;8.918;2023-03-03T17:43:33;95.15;;;42.65;;
50773;SDS011;36745;48.544;8.918;2023-03-03T17:58:53;199.73;;;43.20;;
50773;SDS011;36745;48.544;8.918;2023-03-03T18:21:19;60.70;;;30.70;;
50773;SDS011;36745;48.544;8.918;2023-03-03T18:32:01;64.68;;;29.60;;
50773;SDS011;36745;48.544;8.918;2023-03-03T18:38:46;67.32;;;33.65;;
50773;SDS011;36745;48.544;8.918;2023-03-03T18:49:08;81.72;;;44.22;;
50773;SDS011;36745;48.544;8.918;2023-03-03T19:02:56;66.55;;;36.00;;
50773;SDS011;36745;48.544;8.918;2023-03-03T19:06:28;69.20;;;37.00;;
50773;SDS011;36745;48.544;8.918;2023-03-03T19:10:02;68.70;;;34.33;;
50773;SDS011;36745;48.544;8.918;2023-03-03T19:13:38;69.47;;;34.10;;
50773;SDS011;36745;48.544;8.918;2023-03-03T19:20:36;64.35;;;32.33;;
50773;SDS011;36745;48.544;8.918;2023-03-03T19:24:01;61.70;;;33.30;;
50773;SDS011;36745;48.544;8.918;2023-03-03T19:28:02;62.45;;;33.83;;
50773;SDS011;36745;48.544;8.918;2023-03-03T19:31:39;65.18;;;34.13;;
50773;SDS011;36745;48.544;8.918;2023-03-03T19:35:27;67.00;;;33.50;;
50773;SDS011;36745;48.544;8.918;2023-03-03T19:46:32;68.43;;;34.55;;
50773;SDS011;36745;48.544;8.918;2023-03-03T19:57:23;83.28;;;43.70;;
50773;SDS011;36745;48.544;8.918;2023-03-03T20:08:20;94.97;;;46.83;;
50773;SDS011;36745;48.544;8.918;2023-03-03T20:15:27;100.68;;;50.78;;
50773;SDS011;36745;48.544;8.918;2023-03-03T20:51:12;84.15;;;42.50;;
50773;SDS011;36745;48.544;8.918;2023-03-03T21:09:27;103.25;;;51.45;;
50773;SDS011;36745;48.544;8.918;2023-03-03T21:12:54;92.07;;;49.30;;
50773;SDS011;36745;48.544;8.918;2023-03-03T21:16:26;85.82;;;43.67;;
50773;SDS011;36745;48.544;8.918;2023-03-03T21:19:49;77.60;;;42.13;;
50773;SDS011;36745;48.544;8.918;2023-03-03T21:23:09;70.28;;;38.65;;
50773;SDS011;36745;48.544;8.918;2023-03-03T21:37:55;75.35;;;38.20;;
50773;SDS011;36745;48.544;8.918;2023-03-03T21:41:16;76.13;;;37.63;;
50773;SDS011;36745;48.544;8.918;2023-03-03T21:44:46;69.35;;;37.33;;
50773;SDS011;36745;48.544;8.918;2023-03-03T21:48:09;81.35;;;38.58;;
50773;SDS011;36745;48.544;8.918;2023-03-03T21:51:29;81.93;;;39.38;;
50773;SDS011;36745;48.544;8.918;2023-03-03T21:54:50;76.13;;;37.72;;
50773;SDS011;36745;48.544;8.918;2023-03-03T21:58:10;72.53;;;38.53;;
50773;SDS011;36745;48.544;8.918;2023-03-03T22:01:29;78.30;;;37.88;;
50773;SDS011;36745;48.544;8.918;2023-03-03T22:04:49;70.78;;;36.17;;
50773;SDS011;36745;48.544;8.918;2023-03-03T22:08:09;65.45;;;35.92;;
50773;SDS011;36745;48.544;8.918;2023-03-03T22:11:29;71.57;;;38.75;;
50773;SDS011;36745;48.544;8.918;2023-03-03T22:14:49;71.38;;;36.50;;
50773;SDS011;36745;48.544;8.918;2023-03-03T22:18:08;82.05;;;42.15;;
50773;SDS011;36745;48.544;8.918;2023-03-03T22:21:29;78.20;;;38.40;;
50773;SDS011;36745;48.544;8.918;2023-03-03T22:24:49;74.30;;;39.53;;
50773;SDS011;36745;48.544;8.918;2023-03-03T22:28:09;73.43;;;38.20;;
50773;SDS011;36745;48.544;8.918;2023-03-03T22:31:29;79.25;;;37.55;;
50773;SDS011;36745;48.544;8.918;2023-03-03T22:34:48;78.45;;;38.42;;
50773;SDS011;36745;48.544;8.918;2023-03-03T22:38:08;76.90;;;38.45;;
50773;SDS011;36745;48.544;8.918;2023-03-03T22:41:28;74.43;;;37.00;;
50773;SDS011;36745;48.544;8.918;2023-03-03T22:44:51;90.72;;;43.65;;
50773;SDS011;36745;48.544;8.918;2023-03-03T22:48:14;54.17;;;28.73;;
50773;SDS011;36745;48.544;8.918;2023-03-03T22:51:34;78.50;;;39.17;;
50773;SDS011;36745;48.544;8.918;2023-03-03T22:54:53;75.78;;;40.05;;
50773;SDS011;36745;48.544;8.918;2023-03-03T22:58:14;72.30;;;38.22;;
50773;SDS011;36745;48.544;8.918;2023-03-03T23:01:34;70.25;;;38.08;;
50773;SDS011;36745;48.544;8.918;2023-03-03T23:04:54;66.00;;;35.47;;
50773;SDS011;36745;48.544;8.918;2023-03-03T23:08:19;75.88;;;37.10;;
50773;SDS011;36745;48.544;8.918;2023-03-03T23:11:39;78.22;;;37.97;;
50773;SDS011;36745;48.544;8.918;2023-03-03T23:14:59;75.13;;;37.97;;
50773;SDS011;36745;48.544;8.918;2023-03-03T23:18:20;79.47;;;38.17;;
50773;SDS011;36745;48.544;8.918;2023-03-03T23:21:40;74.10;;;39.83;;
50773;SDS011;36745;48.544;8.918;2023-03-03T23:24:59;72.03;;;37.00;;
50773;SDS011;36745;48.544;8.918;2023-03-03T23:28:19;80.25;;;39.05;;
50773;SDS011;36745;48.544;8.918;2023-03-03T23:31:39;78.47;;;38.75;;
50773;SDS011;36745;48.544;8.918;2023-03-03T23:34:59;84.45;;;40.15;;
50773;SDS011;36745;48.544;8.918;2023-03-03T23:38:18;78.68;;;40.08;;
50773;SDS011;36745;48.544;8.918;2023-03-03T23:41:38;78.40;;;40.78;;
50773;SDS011;36745;48.544;8.918;2023-03-03T23:44:58;77.90;;;39.83;;
50773;SDS011;36745;48.544;8.918;2023-03-03T23:48:18;79.32;;;38.45;;
50773;SDS011;36745;48.544;8.918;2023-03-03T23:51:38;82.55;;;40.10;;
50773;SDS011;36745;48.544;8.918;2023-03-03T23:54:59;82.45;;;39.92;;
50773;SDS011;36745;48.544;8.918;2023-03-03T23:58:19;82.80;;;39.15;;
